Twining, MI

5:42 PM EST en Febrero 01, 2015 (GMT -0500)
Barstow | Change Station
CLOSE
Current Station
Aeropuerto
Location: Midland,
Altura: 636 ft
Estaciones meteorológicas cercanas
Aviso en curso: Winter Weather Advisory

Alt 636 ft 43.66 °N, 84.26 °W | Updated 8 minutes ago

Nieve
Nieve
15 ° F
Sensación térmica 3 ° F
N
9
Viento Variable Viento desde NNE
Gusts 18 mph

Hoy
Alta -- | Baja -- ° F
--% Posibilidad de precipitaciones
Ayer
Alta -- | Baja -- ° F
Precip. -- pul
7:53 AM 5:45 PM
Gibosa creciente, 96% visible
Presión 29.97 pul
Visibilidad 1.2 Millas
Nubes Nublado 1200 ft
Vientos helados 3 ° F
Punto de rocío 10 ° F
Humedad 82%
Precipitaciones 0.00 pul
Espesor de la nieve No disponible.
UV 0 de una escala de 12
Polen .10 de una escala de 12
Calidad del aire No disponible.
Flu Activity No disponible.
METAR KIKW 012234Z AUTO 03008G16KT 1 1/4SM -SN OVC012 M09/M12 A2997 RMK AO2 T10951120

More Conditions Fewer Conditions

Presión 29.97 pul
Visibilidad 1.2 Millas
Nubes Nublado 1200 ft
Vientos helados 3 ° F
Punto de rocío 10 ° F
Humedad 82%
Precipitaciones 0.00 pul
Espesor de la nieve No disponible.
UV 0 de una escala de 12
Polen .10 de una escala de 12
Calidad del aire No disponible.
Flu Activity No disponible.
METAR KIKW 012234Z AUTO 03008G16KT 1 1/4SM -SN OVC012 M09/M12 A2997 RMK AO2 T10951120

More Conditions Fewer Conditions

Nowcast | as of 5:00 PM EST on February 1, 2015

Winter Weather Advisory in effect until 5 am EST Monday... At 6 PM...blowing snow. Snow. Temperature 13. Northeast winds 17 mph with gusts to 30 mph. Wind chill 4 below. At 8 PM...blowing snow. Snow. Temperature 11. Northeast winds 18 mph with gusts to 30 mph. Wind chill 7 below. At 10 PM...blowing snow. Snow. Temperature 10 above. Northeast winds 20 mph with gusts to 35 mph. Wind chill 10 below. At 12 am...blowing snow. Snow. Temperature 9 above. Northeast winds 20 mph with gusts to 35 mph. Wind chill 10 below.

×

10-Day Weather Forecast

Almanac

Astronomía

Feb. 01, 2015 Salida Puesta
Hora real
Crepúsculo civil
Crepúsculo náutico
Crepúsculo astronómico
Luna
Horas de luz
Horas de luz
Tomorrow will be .
, % of the Moon is Illuminated

Extremos de hoy

Máximos del estado Bajos del estado

Community

WunderPhotos

Upload Photos

1,792,581 ¡fotos cargadas!

WunderBlogs® & News

Nearby

Calidad del aire

  Calidad del aire Índice AQ Contaminante
Not available.

Grosos de nieve

Estación Profundido Altura

Actividad de terremotos

Ciudad Distance Mag. Tiempo y dato
Magnitud mínima muestra es 2,5.

Temperaturas de aguas costeras

Lugar Temperatura

Estaciones meteorológicas cercanas